Time;durP1;ratioP1;P1;durP2;ratioP2;P2;SDS_P1;SDS_P2;PMS_P1;PMS_P2;Temp;Humidity;BMP_temperature;BMP_pressure;BME280_temperature;BME280_humidity;BME280_pressure;Samples;Min_cycle;Max_cycle;Signal;HPM_P1;HPM_P2
2022/06/27 00:01:48;;;;;;;7.95;5.40;;;21.90;66.90;;;;;;5028267;28;20070;-70
2022/06/27 00:04:13;;;;;;;5.80;5.30;;;21.90;66.80;;;;;;5036070;28;20027;-69
2022/06/27 00:06:39;;;;;;;8.82;6.13;;;21.80;66.90;;;;;;5040010;28;20440;-70
2022/06/27 00:09:05;;;;;;;6.13;5.35;;;21.80;67.00;;;;;;5042930;28;20038;-70
2022/06/27 00:11:31;;;;;;;5.72;5.22;;;21.80;67.30;;;;;;5033006;28;20029;-68
2022/06/27 00:13:56;;;;;;;7.95;5.22;;;21.70;67.50;;;;;;5027949;28;20138;-68
2022/06/27 00:16:22;;;;;;;10.90;5.85;;;21.70;67.70;;;;;;5037127;28;20466;-69
2022/06/27 00:18:48;;;;;;;6.95;6.22;;;21.70;67.70;;;;;;5038734;28;20029;-70
2022/06/27 00:21:14;;;;;;;6.65;5.93;;;21.60;68.00;;;;;;5028687;28;20532;-69
2022/06/27 00:23:39;;;;;;;6.43;5.80;;;21.60;68.00;;;;;;5046358;28;20025;-71
2022/06/27 00:26:05;;;;;;;6.70;5.88;;;21.50;68.20;;;;;;5034614;28;20117;-70
2022/06/27 00:28:31;;;;;;;6.82;6.03;;;21.40;68.70;;;;;;5040827;28;20060;-70
2022/06/27 00:30:56;;;;;;;6.82;6.22;;;21.40;68.90;;;;;;5041444;28;20033;-69
2022/06/27 00:33:22;;;;;;;6.28;5.68;;;21.40;69.10;;;;;;5033612;28;20032;-69
2022/06/27 00:35:49;;;;;;;6.47;5.80;;;21.40;69.50;;;;;;5046056;28;20035;-68
2022/06/27 00:38:15;;;;;;;7.70;6.68;;;21.40;69.40;;;;;;5035192;28;20017;-69
2022/06/27 00:40:41;;;;;;;8.10;6.50;;;21.30;69.70;;;;;;5039544;28;20372;-69
2022/06/27 00:43:07;;;;;;;6.55;5.95;;;21.30;69.70;;;;;;5042548;28;20092;-69
2022/06/27 00:45:33;;;;;;;6.32;5.72;;;21.20;70.00;;;;;;5032681;28;20116;-69
2022/06/27 00:47:58;;;;;;;8.45;7.35;;;21.20;70.10;;;;;;5044739;28;20032;-70
2022/06/27 00:50:24;;;;;;;6.70;6.10;;;21.10;70.10;;;;;;5036618;28;20036;-70
2022/06/27 00:52:50;;;;;;;8.27;6.22;;;21.00;70.30;;;;;;5020080;28;20029;-68
2022/06/27 00:55:16;;;;;;;6.70;6.10;;;21.00;70.60;;;;;;5043733;28;20021;-69
2022/06/27 00:57:42;;;;;;;7.72;6.72;;;20.90;70.90;;;;;;5031666;28;20025;-69
2022/06/27 01:00:09;;;;;;;9.40;6.50;;;20.90;70.90;;;;;;5043568;28;20030;-70
2022/06/27 01:02:34;;;;;;;7.28;5.60;;;20.90;70.80;;;;;;5019907;28;20143;-68
2022/06/27 01:05:00;;;;;;;6.95;6.35;;;20.90;70.60;;;;;;5036488;28;20109;-68
2022/06/27 01:07:26;;;;;;;8.02;5.80;;;20.90;70.60;;;;;;5044237;28;20025;-68
2022/06/27 01:09:52;;;;;;;6.65;6.05;;;20.90;70.60;;;;;;5032326;28;20028;-69
2022/06/27 01:12:18;;;;;;;7.25;6.47;;;21.00;70.40;;;;;;5041978;28;20042;-69
2022/06/27 01:14:44;;;;;;;6.72;6.10;;;21.00;70.60;;;;;;5038745;28;20033;-69
2022/06/27 01:17:11;;;;;;;6.45;5.85;;;20.90;70.80;;;;;;5034319;28;20117;-69
2022/06/27 01:19:37;;;;;;;9.77;6.68;;;21.00;70.90;;;;;;5045098;28;20013;-70
2022/06/27 01:22:10;;;;;;;7.57;6.85;;;21.00;71.00;;;;;;5044033;28;20033;-70
2022/06/27 01:24:36;;;;;;;7.53;6.40;;;20.90;71.30;;;;;;5019958;28;20534;-70
2022/06/27 01:27:03;;;;;;;7.65;6.28;;;20.90;71.70;;;;;;5035626;28;20041;-69
2022/06/27 01:29:29;;;;;;;7.00;6.40;;;20.80;71.90;;;;;;5044787;28;20025;-70
2022/06/27 01:31:54;;;;;;;7.15;6.07;;;20.80;72.20;;;;;;5031977;28;20025;-70
2022/06/27 01:34:21;;;;;;;6.95;6.35;;;20.70;72.30;;;;;;5023836;28;20048;-69
2022/06/27 01:36:47;;;;;;;8.82;6.72;;;20.70;72.20;;;;;;5039047;28;20502;-69
2022/06/27 01:39:22;;;;;;;6.90;6.30;;;20.70;72.40;;;;;;5033964;28;20022;-68
2022/06/27 01:41:56;;;;;;;6.80;6.20;;;20.80;72.30;;;;;;5027134;28;20120;-69
2022/06/27 01:44:24;;;;;;;7.30;6.55;;;20.70;72.40;;;;;;5035350;28;20029;-70
2022/06/27 01:46:59;;;;;;;6.45;5.85;;;20.60;72.60;;;;;;5037380;28;20064;-69
2022/06/27 01:49:24;;;;;;;10.95;6.32;;;20.50;72.80;;;;;;5043887;28;20025;-70
2022/06/27 01:51:51;;;;;;;6.93;6.32;;;20.50;72.80;;;;;;5031730;28;20512;-69
2022/06/27 01:54:19;;;;;;;7.22;6.35;;;20.50;72.80;;;;;;5041955;28;20481;-70
2022/06/27 01:56:46;;;;;;;7.80;5.95;;;20.50;73.20;;;;;;5038974;28;20032;-69
2022/06/27 01:59:13;;;;;;;9.18;6.70;;;20.50;73.50;;;;;;5016109;28;20112;-69
2022/06/27 02:01:40;;;;;;;6.97;6.28;;;20.40;73.70;;;;;;5044542;28;20025;-70
2022/06/27 02:04:08;;;;;;;10.40;6.75;;;20.50;73.50;;;;;;5033004;28;20029;-69
2022/06/27 02:06:33;;;;;;;7.97;7.18;;;20.50;73.60;;;;;;5039875;28;20025;-69
2022/06/27 02:09:04;;;;;;;6.80;6.20;;;20.40;73.80;;;;;;5042596;28;20025;-68
2022/06/27 02:11:31;;;;;;;8.25;7.03;;;20.50;73.70;;;;;;5035087;28;20112;-69
2022/06/27 02:13:57;;;;;;;8.27;7.47;;;20.40;73.90;;;;;;5047846;28;20483;-69
2022/06/27 02:16:23;;;;;;;7.97;7.10;;;20.40;74.00;;;;;;5038832;28;20394;-69
2022/06/27 02:18:49;;;;;;;8.95;7.85;;;20.40;74.00;;;;;;5040395;28;20025;-68
2022/06/27 02:21:20;;;;;;;8.25;7.45;;;20.40;74.20;;;;;;5026966;28;20025;-69
2022/06/27 02:23:47;;;;;;;8.68;7.85;;;20.40;74.10;;;;;;5034605;28;20483;-68
2022/06/27 02:26:15;;;;;;;8.27;7.57;;;20.40;74.20;;;;;;5045291;28;20040;-69
2022/06/27 02:28:43;;;;;;;8.40;7.57;;;20.40;74.20;;;;;;5040508;28;20086;-69
2022/06/27 02:31:10;;;;;;;8.10;7.40;;;20.40;74.40;;;;;;5037516;28;20487;-69
2022/06/27 02:33:44;;;;;;;12.05;7.95;;;20.40;74.70;;;;;;5047298;28;20454;-69
2022/06/27 02:36:29;;;;;;;8.45;7.55;;;20.40;74.80;;;;;;5036726;28;20386;-68
2022/06/27 02:38:55;;;;;;;8.40;7.60;;;20.40;74.80;;;;;;5039192;28;20033;-69
2022/06/27 02:41:24;;;;;;;8.75;7.85;;;20.40;74.90;;;;;;5046635;28;20029;-68
2022/06/27 02:43:55;;;;;;;8.98;8.18;;;20.40;74.90;;;;;;5034419;28;20082;-70
2022/06/27 02:46:21;;;;;;;8.93;8.02;;;20.30;75.00;;;;;;5026391;28;20030;-69
2022/06/27 02:48:49;;;;;;;8.77;7.97;;;20.30;74.90;;;;;;5041153;28;20585;-69
2022/06/27 02:51:20;;;;;;;8.55;7.82;;;20.30;75.00;;;;;;5036964;28;20068;-69
2022/06/27 02:54:07;;;;;;;8.80;7.72;;;20.40;74.80;;;;;;5047342;28;20032;-69
2022/06/27 02:56:38;;;;;;;8.13;7.25;;;20.30;74.80;;;;;;5039508;28;20021;-70
2022/06/27 02:59:11;;;;;;;7.85;7.05;;;20.30;74.60;;;;;;5037476;28;20018;-69
2022/06/27 03:01:38;;;;;;;9.40;7.35;;;20.30;74.70;;;;;;5047149;28;20039;-68
2022/06/27 03:04:04;;;;;;;9.07;7.65;;;20.20;74.60;;;;;;5035502;28;20035;-69
2022/06/27 03:06:30;;;;;;;8.65;7.72;;;20.40;74.50;;;;;;5042363;28;20033;-70
2022/06/27 03:08:56;;;;;;;10.02;8.10;;;20.40;74.40;;;;;;5042406;28;20029;-69
2022/06/27 03:11:25;;;;;;;141.65;84.85;;;20.40;74.60;;;;;;5035380;28;20109;-69
2022/06/27 03:13:53;;;;;;;180.98;105.07;;;20.40;74.60;;;;;;5047293;28;20032;-68
2022/06/27 03:16:20;;;;;;;146.10;76.63;;;20.50;74.40;;;;;;5037371;28;20474;-68
2022/06/27 03:18:47;;;;;;;23.98;15.88;;;20.60;74.30;;;;;;5021573;28;20427;-69
2022/06/27 03:21:13;;;;;;;106.18;64.40;;;20.70;74.00;;;;;;5025728;28;20018;-68
2022/06/27 03:23:40;;;;;;;9.50;8.55;;;20.80;73.80;;;;;;5033730;28;20026;-68
2022/06/27 03:26:05;;;;;;;11.52;10.32;;;20.80;73.70;;;;;;5045389;28;20030;-68
2022/06/27 03:28:31;;;;;;;8.75;7.95;;;21.10;73.10;;;;;;5038387;28;20040;-69
2022/06/27 03:30:57;;;;;;;8.10;7.30;;;21.70;71.00;;;;;;5038479;28;20106;-69
2022/06/27 03:33:23;;;;;;;6.82;6.20;;;;;;;;;;5045680;28;20029;-69
2022/06/27 03:35:50;;;;;;;12.48;6.75;;;;;;;;;;5033818;28;20381;-68
2022/06/27 03:38:16;;;;;;;6.15;5.55;;;;;;;;;;5043688;28;20105;-69
2022/06/27 03:40:42;;;;;;;6.10;5.50;;;;;;;;;;5039962;28;20099;-69
2022/06/27 03:43:08;;;;;;;7.53;5.60;;;;;;;;;;5036852;28;20021;-69
2022/06/27 03:45:34;;;;;;;8.13;5.13;;;;;;;;;;5028672;28;20017;-70
2022/06/27 03:48:01;;;;;;;6.03;5.35;;;26.40;54.30;;;;;;5033876;28;20082;-70
2022/06/27 03:50:27;;;;;;;9.48;5.43;;;;;;;;;;5041910;28;20020;-70
2022/06/27 03:52:54;;;;;;;4.68;4.38;;;28.00;50.70;;;;;;5041248;28;20029;-70
2022/06/27 03:55:21;;;;;;;4.85;4.40;;;28.60;49.20;;;;;;5034568;28;20387;-70
2022/06/27 03:57:53;;;;;;;5.18;4.13;;;29.20;47.10;;;;;;5046004;28;20049;-71
2022/06/27 04:00:25;;;;;;;8.18;4.22;;;29.60;45.90;;;;;;5036305;28;20017;-71
2022/06/27 04:02:51;;;;;;;6.80;4.45;;;29.90;45.10;;;;;;5020981;28;20025;-71
2022/06/27 04:05:17;;;;;;;7.60;4.50;;;29.70;45.30;;;;;;5044485;28;20525;-68
2022/06/27 04:07:43;;;;;;;6.35;4.03;;;29.80;44.80;;;;;;5032971;28;20318;-68
2022/06/27 04:10:11;;;;;;;4.45;4.05;;;30.00;44.80;;;;;;5044440;28;20413;-68
2022/06/27 04:12:37;;;;;;;4.53;4.03;;;30.50;44.00;;;;;;5038773;28;20013;-68
2022/06/27 04:15:05;;;;;;;5.13;4.15;;;31.00;43.00;;;;;;5018767;28;20033;-66
2022/06/27 04:17:31;;;;;;;4.30;3.50;;;;;;;;;;5027785;28;20021;-69
2022/06/27 04:19:57;;;;;;;4.82;3.60;;;;;;;;;;5028548;28;20055;-70
2022/06/27 04:22:23;;;;;;;3.90;3.50;;;;;;;;;;5036717;28;20059;-71
2022/06/27 04:24:49;;;;;;;4.38;3.38;;;;;;;;;;5029761;28;20488;-71
2022/06/27 04:27:17;;;;;;;5.00;3.80;;;;;;;;;;5036000;28;20037;-70
2022/06/27 04:29:43;;;;;;;6.72;3.47;;;33.40;37.50;;;;;;5045400;28;20442;-70
2022/06/27 04:32:09;;;;;;;6.60;3.95;;;33.70;37.30;;;;;;5014464;28;20103;-69
2022/06/27 04:34:36;;;;;;;9.63;3.58;;;33.50;37.20;;;;;;5040141;28;20026;-70
2022/06/27 04:37:03;;;;;;;6.22;3.33;;;33.50;37.50;;;;;;5041762;28;20555;-68
2022/06/27 04:39:30;;;;;;;6.35;3.83;;;32.90;38.60;;;;;;5032903;28;20146;-70
2022/06/27 04:41:55;;;;;;;7.05;4.10;;;33.40;38.20;;;;;;4998826;28;20036;-69
2022/06/27 04:44:21;;;;;;;5.78;4.03;;;33.90;36.80;;;;;;5042129;28;20048;-69
2022/06/27 04:46:47;;;;;;;5.38;3.25;;;33.50;37.60;;;;;;5039529;28;20048;-70
2022/06/27 04:49:14;;;;;;;4.65;4.20;;;33.20;38.60;;;;;;5016979;28;20025;-71
2022/06/27 04:51:41;;;;;;;8.18;4.30;;;;;;;;;;5045659;28;20440;-70
2022/06/27 04:54:08;;;;;;;8.93;4.40;;;31.80;40.10;;;;;;5035829;28;20037;-70
2022/06/27 04:56:35;;;;;;;9.63;4.20;;;30.50;43.30;;;;;;5047549;28;20044;-70
2022/06/27 04:59:01;;;;;;;5.72;4.38;;;30.40;44.00;;;;;;5046181;28;20056;-70
2022/06/27 05:01:27;;;;;;;5.22;4.55;;;31.10;43.10;;;;;;5033196;28;20434;-70
2022/06/27 05:03:53;;;;;;;6.47;4.78;;;31.70;41.50;;;;;;5027602;28;20029;-69
2022/06/27 05:06:18;;;;;;;7.40;4.40;;;31.60;41.50;;;;;;5030509;28;20030;-69
2022/06/27 05:08:44;;;;;;;8.43;4.55;;;31.90;41.50;;;;;;5038668;28;20055;-70
2022/06/27 05:11:10;;;;;;;5.85;4.35;;;;;;;;;;5034943;28;20052;-71
2022/06/27 05:13:36;;;;;;;5.10;4.60;;;33.90;37.80;;;;;;5045059;28;20060;-70
2022/06/27 05:16:03;;;;;;;5.15;3.85;;;33.90;37.90;;;;;;5032584;28;20091;-69
2022/06/27 05:18:28;;;;;;;4.68;4.18;;;34.50;37.20;;;;;;5022347;28;20037;-71
2022/06/27 05:20:54;;;;;;;4.82;3.70;;;34.90;36.20;;;;;;5027507;28;20029;-70
2022/06/27 05:23:20;;;;;;;4.15;3.72;;;35.20;35.60;;;;;;5043599;28;20028;-71
2022/06/27 05:25:46;;;;;;;5.47;4.07;;;35.70;34.90;;;;;;5028977;28;20037;-70
2022/06/27 05:28:11;;;;;;;9.68;3.92;;;35.40;34.90;;;;;;5048421;22;20041;-67
2022/06/27 05:30:37;;;;;;;6.75;3.78;;;;;;;;;;5018414;28;20034;-68
2022/06/27 05:33:03;;;;;;;5.80;4.70;;;;;;;;;;5002271;28;20021;-68
2022/06/27 05:35:29;;;;;;;6.85;3.97;;;33.40;38.50;;;;;;5011132;28;20402;-68
2022/06/27 05:37:55;;;;;;;6.88;3.70;;;34.00;37.80;;;;;;5004421;28;20037;-68
2022/06/27 05:40:22;;;;;;;6.32;3.83;;;34.80;36.70;;;;;;5040602;28;20025;-67
2022/06/27 05:42:48;;;;;;;12.40;4.88;;;35.20;35.20;;;;;;5036828;28;20048;-67
2022/06/27 05:45:15;;;;;;;13.63;4.18;;;34.90;36.00;;;;;;5033871;28;20057;-68
2022/06/27 05:47:41;;;;;;;16.92;5.00;;;35.00;35.90;;;;;;5044004;28;20394;-68
2022/06/27 05:50:08;;;;;;;20.52;5.15;;;34.70;36.40;;;;;;5033228;28;20110;-67
2022/06/27 05:52:34;;;;;;;9.98;4.30;;;33.70;37.70;;;;;;5037433;28;20124;-68
2022/06/27 05:55:01;;;;;;;6.93;4.05;;;33.70;38.20;;;;;;5038339;28;20497;-70
2022/06/27 05:57:28;;;;;;;8.65;4.90;;;34.90;36.00;;;;;;5029604;28;20085;-70
2022/06/27 05:59:55;;;;;;;14.32;4.28;;;34.50;36.10;;;;;;5024769;28;20117;-71
2022/06/27 06:02:25;;;;;;;8.18;4.57;;;34.60;36.20;;;;;;5032902;28;20100;-70
2022/06/27 06:04:51;;;;;;;6.77;4.33;;;;;;;;;;5034928;28;20125;-70
2022/06/27 06:07:18;;;;;;;32.38;19.17;;;;;;;;;;5041768;28;20108;-72
2022/06/27 06:09:44;;;;;;;122.78;81.85;;;;;;;;;;5031403;28;20030;-70
2022/06/27 06:12:12;;;;;;;194.05;123.07;;;34.50;37.60;;;;;;5042209;28;20114;-70
2022/06/27 06:14:39;;;;;;;18.02;11.18;;;35.00;37.20;;;;;;5019176;28;20462;-70
2022/06/27 06:17:05;;;;;;;8.55;4.25;;;37.10;33.20;;;;;;5034386;28;20025;-72
2022/06/27 06:19:32;;;;;;;22.73;13.63;;;;;;;;;;5041237;28;20061;-71
2022/06/27 06:21:58;;;;;;;28.45;19.80;;;;;;;;;;5033790;28;20033;-69
2022/06/27 06:24:25;;;;;;;71.30;51.67;;;;;;;;;;5016014;28;20077;-69
2022/06/27 06:26:56;;;;;;;10.63;4.13;;;40.10;28.90;;;;;;5028116;28;20022;-69
2022/06/27 06:29:22;;;;;;;43.08;30.63;;;39.40;28.70;;;;;;5022803;28;20041;-71
2022/06/27 06:31:49;;;;;;;7.00;4.80;;;38.80;30.60;;;;;;5027335;28;20502;-68
2022/06/27 06:34:15;;;;;;;5.95;3.60;;;;;;;;;;5030824;28;20036;-67
2022/06/27 06:36:41;;;;;;;24.58;6.10;;;;;;;;;;5027020;28;20017;-67
2022/06/27 06:39:07;;;;;;;16.20;8.07;;;36.30;33.80;;;;;;5021177;28;20030;-68
2022/06/27 06:41:35;;;;;;;8.00;3.97;;;36.40;33.90;;;;;;5030159;28;20101;-67
2022/06/27 06:44:05;;;;;;;12.40;4.13;;;36.90;32.40;;;;;;5041653;28;20021;-71
2022/06/27 06:46:34;;;;;;;5.27;3.80;;;36.90;32.20;;;;;;5039170;28;20040;-69
2022/06/27 06:49:05;;;;;;;9.30;4.18;;;36.90;32.30;;;;;;5021672;28;20119;-69
2022/06/27 06:51:34;;;;;;;5.22;3.53;;;36.10;33.50;;;;;;5030823;28;20025;-71
2022/06/27 06:54:01;;;;;;;75.43;67.00;;;35.80;34.10;;;;;;5029502;28;20547;-70
2022/06/27 06:56:28;;;;;;;8.10;4.70;;;35.50;34.80;;;;;;5031714;28;20133;-69
2022/06/27 06:58:54;;;;;;;6.38;3.60;;;35.60;34.20;;;;;;5035247;28;20016;-69
2022/06/27 07:01:20;;;;;;;3.80;3.15;;;35.40;34.70;;;;;;5042262;28;20096;-69
2022/06/27 07:03:47;;;;;;;9.52;3.88;;;36.30;33.40;;;;;;5034055;28;20475;-70
2022/06/27 07:06:13;;;;;;;6.32;3.20;;;36.60;32.80;;;;;;5044803;28;20090;-70
2022/06/27 07:08:40;;;;;;;5.20;3.50;;;36.80;32.50;;;;;;5021703;28;20029;-70
2022/06/27 07:11:07;;;;;;;8.07;3.17;;;36.40;32.60;;;;;;5037089;28;20490;-70
2022/06/27 07:13:33;;;;;;;6.13;3.35;;;36.20;33.20;;;;;;5046964;28;20057;-71
2022/06/27 07:15:59;;;;;;;6.22;3.78;;;;;;;;;;5034161;28;20064;-70
2022/06/27 07:18:25;;;;;;;6.53;3.45;;;;;;;;;;5042406;28;20026;-70
2022/06/27 07:20:52;;;;;;;5.22;2.65;;;;;;;;;;5029513;28;20053;-69
2022/06/27 07:23:19;;;;;;;11.27;3.38;;;;;;;;;;5045087;28;20051;-71
2022/06/27 07:25:45;;;;;;;8.73;4.88;;;;;;;;;;5034172;28;20403;-70
2022/06/27 07:28:12;;;;;;;266.83;189.35;;;37.00;32.20;;;;;;5026276;28;20034;-71
2022/06/27 07:30:40;;;;;;;3.85;3.47;;;37.20;32.00;;;;;;5021937;28;20040;-70
2022/06/27 07:33:07;;;;;;;7.63;3.00;;;36.30;32.40;;;;;;5037233;28;20022;-70
2022/06/27 07:35:33;;;;;;;5.55;3.17;;;35.40;34.30;;;;;;5046995;28;20021;-70
2022/06/27 07:38:00;;;;;;;7.75;2.72;;;36.00;33.60;;;;;;5034415;28;20021;-70
2022/06/27 07:40:26;;;;;;;5.55;3.45;;;36.50;31.90;;;;;;5043701;28;20026;-70
2022/06/27 07:42:53;;;;;;;7.35;2.13;;;37.80;30.30;;;;;;5041931;28;20021;-69
2022/06/27 07:45:24;;;;;;;30.98;21.92;;;38.80;28.20;;;;;;5035781;28;20041;-69
2022/06/27 07:47:51;;;;;;;12.98;6.05;;;37.80;27.20;;;;;;5046376;28;20553;-72
2022/06/27 07:50:39;;;;;;;7.60;2.60;;;37.20;28.40;;;;;;5037413;28;20033;-73
2022/06/27 07:53:12;;;;;;;8.02;2.03;;;37.80;27.40;;;;;;5037484;28;20506;-73
2022/06/27 07:55:43;;;;;;;6.90;1.95;;;;;;;;;;5028375;28;20089;-73
2022/06/27 07:58:15;;;;;;;4.32;1.63;;;;;;;;;;5034891;28;20436;-71
2022/06/27 08:00:45;;;;;;;6.75;2.08;;;;;;;;;;5040121;28;20049;-73
2022/06/27 08:05:57;;;;;;;2.83;1.60;;;39.60;24.90;;;;;;5030904;28;20052;-72
2022/06/27 08:08:23;;;;;;;2.58;2.03;;;38.20;26.60;;;;;;5029906;28;20010;-73
2022/06/27 08:10:53;;;;;;;4.25;2.03;;;37.70;27.20;;;;;;5027398;28;20474;-70
2022/06/27 08:13:20;;;;;;;5.50;2.50;;;38.40;26.40;;;;;;5022026;28;20034;-69
2022/06/27 08:15:47;;;;;;;5.22;1.60;;;38.30;26.10;;;;;;5040577;28;20028;-70
2022/06/27 08:18:14;;;;;;;6.40;2.78;;;38.40;26.20;;;;;;5029387;28;20026;-71
2022/06/27 08:20:40;;;;;;;5.43;1.70;;;38.00;27.00;;;;;;5029823;28;20070;-68
2022/06/27 08:23:07;;;;;;;9.00;2.03;;;38.90;26.10;;;;;;5042495;28;20052;-68
2022/06/27 08:25:34;;;;;;;10.50;1.90;;;39.40;25.60;;;;;;5032896;28;20396;-70
2022/06/27 08:28:00;;;;;;;10.35;2.00;;;39.00;25.50;;;;;;5026551;28;20061;-70
2022/06/27 08:30:27;;;;;;;2.33;1.27;;;39.10;25.30;;;;;;5036943;28;20032;-71
2022/06/27 08:32:56;;;;;;;10.75;5.15;;;38.20;26.10;;;;;;5020006;28;20022;-71
2022/06/27 08:35:23;;;;;;;17.10;11.35;;;37.60;27.30;;;;;;5034651;28;20162;-73
2022/06/27 08:37:52;;;;;;;4.10;1.60;;;38.40;26.50;;;;;;5029337;28;20025;-73
2022/06/27 08:40:19;;;;;;;8.95;2.17;;;;;;;;;;5035757;28;20029;-72
2022/06/27 08:42:47;;;;;;;6.03;3.67;;;37.70;26.50;;;;;;5038525;28;20086;-74
2022/06/27 08:45:15;;;;;;;9.80;1.73;;;38.40;26.10;;;;;;5043287;28;20033;-74
2022/06/27 08:47:41;;;;;;;4.93;3.15;;;38.90;25.90;;;;;;5032317;28;20025;-74
2022/06/27 08:50:11;;;;;;;12.20;8.57;;;38.40;26.30;;;;;;5043979;28;20036;-70
2022/06/27 08:52:45;;;;;;;7.20;4.82;;;39.10;26.20;;;;;;5038558;28;20025;-70
2022/06/27 08:55:11;;;;;;;18.20;6.10;;;39.30;25.50;;;;;;5035051;28;20075;-70
2022/06/27 08:57:39;;;;;;;8.35;2.38;;;39.00;26.40;;;;;;5045001;28;20029;-69
2022/06/27 09:00:06;;;;;;;3.38;1.77;;;37.70;27.20;;;;;;5033967;28;20059;-70
2022/06/27 09:02:42;;;;;;;10.52;2.47;;;37.00;28.10;;;;;;5041179;28;20034;-70
2022/06/27 09:05:24;;;;;;;5.10;1.90;;;36.90;29.00;;;;;;5042250;28;20391;-69
2022/06/27 09:07:52;;;;;;;4.90;2.13;;;37.00;27.40;;;;;;5031853;28;20029;-70
2022/06/27 09:10:29;;;;;;;5.85;2.70;;;37.20;27.80;;;;;;5042470;28;20131;-70
2022/06/27 09:12:57;;;;;;;5.25;2.28;;;37.50;28.00;;;;;;5040372;28;20089;-69
2022/06/27 09:15:40;;;;;;;2.72;1.50;;;37.60;27.40;;;;;;5032917;28;20509;-71
2022/06/27 09:18:07;;;;;;;2.45;1.92;;;37.40;26.80;;;;;;5018086;28;20029;-71
2022/06/27 09:20:50;;;;;;;3.72;1.52;;;36.60;28.00;;;;;;5047302;28;20502;-72
2022/06/27 09:23:40;;;;;;;3.90;1.67;;;36.40;28.40;;;;;;5034156;28;20518;-72
2022/06/27 09:26:13;;;;;;;4.18;3.25;;;36.80;27.70;;;;;;5018698;28;20546;-71
2022/06/27 09:28:42;;;;;;;255.00;226.40;;;36.40;28.50;;;;;;5038569;28;20079;-70
2022/06/27 09:31:13;;;;;;;5.93;4.83;;;;;;;;;;5042275;28;20545;-69
2022/06/27 09:33:40;;;;;;;6.68;4.50;;;;;;;;;;5031978;28;20032;-69
2022/06/27 09:36:14;;;;;;;7.95;6.07;;;;;;;;;;5029992;28;20041;-69
2022/06/27 09:38:41;;;;;;;11.05;8.48;;;;;;;;;;5019019;28;20498;-68
2022/06/27 09:41:09;;;;;;;8.15;4.90;;;;;;;;;;5034684;28;20026;-69
2022/06/27 09:43:36;;;;;;;9.52;5.05;;;;;;;;;;5044934;28;20033;-71
2022/06/27 09:46:03;;;;;;;9.38;6.82;;;;;;;;;;5032743;28;20082;-70
2022/06/27 09:48:29;;;;;;;7.30;3.47;;;;;;;;;;5039718;28;20509;-71
2022/06/27 09:50:56;;;;;;;4.30;1.83;;;;;;;;;;5040051;28;20046;-70
2022/06/27 09:53:26;;;;;;;4.35;2.03;;;;;;;;;;5015309;28;20107;-69
2022/06/27 09:55:53;;;;;;;4.35;2.95;;;;;;;;;;5044684;28;20421;-69
2022/06/27 09:58:20;;;;;;;4.47;3.03;;;;;;;;;;5034777;28;20025;-70
2022/06/27 10:00:48;;;;;;;3.08;2.55;;;;;;;;;;5037854;28;20024;-68
2022/06/27 10:03:15;;;;;;;6.00;2.03;;;;;;;;;;5025305;28;20029;-68
2022/06/27 10:05:41;;;;;;;7.40;2.22;;;;;;;;;;5031555;28;20026;-68
2022/06/27 10:08:08;;;;;;;4.47;2.17;;;;;;;;;;5042484;28;20101;-67
2022/06/27 10:10:53;;;;;;;6.43;1.70;;;;;;;;;;5036881;28;20033;-69
2022/06/27 10:13:19;;;;;;;4.60;2.50;;;;;;;;;;5032919;28;20025;-68
2022/06/27 10:15:48;;;;;;;3.25;1.95;;;;;;;;;;5044523;28;20021;-67
2022/06/27 10:18:14;;;;;;;1.30;1.20;;;;;;;;;;5033463;28;20021;-67
2022/06/27 10:20:41;;;;;;;1.33;1.20;;;35.90;29.60;;;;;;5046442;28;20077;-68
2022/06/27 10:23:06;;;;;;;2.35;1.70;;;36.00;29.10;;;;;;5033690;28;20033;-69
2022/06/27 10:25:32;;;;;;;6.97;2.08;;;36.20;29.30;;;;;;5043851;28;20097;-69
2022/06/27 10:28:10;;;;;;;3.60;1.10;;;35.60;29.70;;;;;;5030273;28;20040;-68
2022/06/27 10:30:46;;;;;;;1.27;1.10;;;34.80;30.10;;;;;;5022988;28;20474;-68
2022/06/27 10:33:26;;;;;;;3.42;1.98;;;34.40;31.30;;;;;;5031360;28;20386;-69
2022/06/27 10:35:54;;;;;;;5.07;1.42;;;34.00;32.20;;;;;;5046281;28;20030;-69
2022/06/27 10:38:28;;;;;;;3.92;1.58;;;33.70;32.60;;;;;;5029174;28;20025;-70
2022/06/27 10:40:55;;;;;;;2.85;1.60;;;33.60;32.40;;;;;;5038774;28;20129;-68
2022/06/27 10:43:35;;;;;;;5.57;1.73;;;33.60;32.80;;;;;;5045428;28;20017;-69
2022/06/27 10:46:21;;;;;;;6.00;2.40;;;33.70;33.20;;;;;;5019296;28;20021;-69
2022/06/27 10:48:52;;;;;;;2.60;1.70;;;33.90;32.90;;;;;;5039426;28;20033;-69
2022/06/27 10:51:26;;;;;;;2.60;1.65;;;33.80;33.10;;;;;;5045000;28;20049;-68
2022/06/27 10:54:13;;;;;;;4.88;1.77;;;33.70;33.20;;;;;;5033101;28;20371;-70
2022/06/27 10:56:46;;;;;;;8.15;2.13;;;33.80;32.90;;;;;;5040316;28;20029;-68
2022/06/27 10:59:15;;;;;;;7.93;2.03;;;33.70;34.00;;;;;;5043386;28;20486;-69
2022/06/27 11:01:42;;;;;;;4.40;2.10;;;33.70;33.80;;;;;;5033401;28;20518;-68
2022/06/27 11:04:34;;;;;;;2.33;2.13;;;33.50;33.70;;;;;;5044380;28;20072;-69
2022/06/27 11:07:00;;;;;;;6.28;2.20;;;33.40;34.40;;;;;;5042422;28;20489;-69
2022/06/27 11:09:35;;;;;;;4.35;1.75;;;33.50;33.80;;;;;;5034433;28;20077;-71
2022/06/27 11:12:01;;;;;;;4.05;2.38;;;33.20;33.10;;;;;;5019835;28;20631;-72
2022/06/27 11:14:27;;;;;;;3.22;2.20;;;32.90;33.90;;;;;;5042617;28;20047;-71
2022/06/27 11:16:53;;;;;;;4.35;2.00;;;32.70;34.50;;;;;;5042061;28;20030;-72
2022/06/27 11:22:22;;;;;;;3.17;1.88;;;32.80;34.80;;;;;;5019876;28;20036;-71
2022/06/27 11:24:49;;;;;;;6.18;1.98;;;32.80;34.80;;;;;;5032954;28;20116;-68
2022/06/27 11:32:34;;;;;;;4.18;2.10;;;33.20;34.40;;;;;;5038975;28;20112;-72
2022/06/27 11:35:01;;;;;;;1.50;1.40;;;32.90;34.30;;;;;;5019949;28;20483;-70
2022/06/27 11:37:29;;;;;;;3.03;1.67;;;32.80;34.10;;;;;;5043302;28;20030;-75
2022/06/27 11:40:03;;;;;;;7.00;2.03;;;32.90;34.50;;;;;;5041776;28;20391;-70
2022/06/27 11:42:31;;;;;;;2.08;1.83;;;33.00;34.40;;;;;;5031690;28;20394;-71
2022/06/27 11:45:09;;;;;;;6.72;2.35;;;33.10;34.40;;;;;;5041389;28;20029;-72
2022/06/27 11:47:37;;;;;;;6.07;2.00;;;33.10;34.90;;;;;;5032993;28;20096;-70
2022/06/27 11:50:15;;;;;;;6.78;2.03;;;33.30;34.60;;;;;;5045544;28;20352;-69
2022/06/27 11:52:43;;;;;;;1.70;1.42;;;33.40;33.80;;;;;;5039773;28;20379;-71
2022/06/27 11:55:20;;;;;;;3.78;2.30;;;33.40;33.80;;;;;;5018579;28;20025;-71
2022/06/27 11:57:54;;;;;;;6.55;2.35;;;33.40;34.60;;;;;;5045835;28;20105;-72
2022/06/27 12:00:25;;;;;;;2.33;2.00;;;33.50;35.10;;;;;;5036528;28;20037;-73
2022/06/27 12:03:11;;;;;;;5.05;2.13;;;33.50;34.50;;;;;;5038440;28;20081;-71
2022/06/27 12:05:38;;;;;;;4.30;1.55;;;33.40;34.30;;;;;;5028251;28;20120;-73
2022/06/27 12:08:09;;;;;;;4.38;1.48;;;33.40;33.60;;;;;;5016151;28;20025;-71
2022/06/27 12:10:35;;;;;;;;;;;33.40;33.50;;;;;;5041035;28;20033;-72
2022/06/27 12:13:09;;;;;;;2.47;1.40;;;33.50;33.00;;;;;;5024348;28;19905;-72
2022/06/27 12:15:36;;;;;;;6.00;2.35;;;33.50;33.30;;;;;;5015056;28;20040;-73
2022/06/27 12:18:03;;;;;;;4.63;1.40;;;33.70;33.10;;;;;;5032329;28;20025;-74
2022/06/27 12:20:30;;;;;;;5.80;1.85;;;33.80;33.80;;;;;;5027801;28;20021;-69
2022/06/27 12:22:56;;;;;;;4.93;1.52;;;33.50;33.80;;;;;;5038080;27;20032;-73
2022/06/27 12:25:22;;;;;;;7.55;2.38;;;33.50;34.20;;;;;;5009807;28;20081;-70
2022/06/27 12:27:48;;;;;;;5.80;2.10;;;33.60;33.70;;;;;;5038859;28;20091;-70
2022/06/27 12:30:14;;;;;;;3.10;1.58;;;33.50;34.10;;;;;;5043149;28;20034;-69
2022/06/27 12:32:41;;;;;;;5.15;1.67;;;33.40;34.40;;;;;;5022640;28;20387;-71
2022/06/27 12:35:07;;;;;;;5.35;1.90;;;33.40;34.20;;;;;;5024640;28;20367;-71
2022/06/27 12:37:42;;;;;;;2.15;1.70;;;33.50;34.20;;;;;;5032256;28;20029;-69
2022/06/27 12:40:10;;;;;;;3.80;1.55;;;33.60;34.40;;;;;;5047018;28;20108;-71
2022/06/27 12:42:37;;;;;;;7.80;2.13;;;33.70;33.90;;;;;;5021851;28;20032;-68
2022/06/27 12:45:03;;;;;;;3.00;1.70;;;33.80;33.10;;;;;;5030121;28;20029;-70
2022/06/27 12:47:29;;;;;;;3.75;2.00;;;33.80;33.10;;;;;;5035621;28;20029;-69
2022/06/27 12:49:55;;;;;;;4.78;1.80;;;33.70;34.10;;;;;;5043001;28;20029;-69
2022/06/27 12:52:20;;;;;;;3.97;1.55;;;33.70;34.30;;;;;;5035353;28;20025;-69
2022/06/27 12:54:46;;;;;;;1.70;1.33;;;33.60;34.30;;;;;;5038162;28;20065;-70
2022/06/27 12:57:15;;;;;;;2.60;1.55;;;33.50;34.40;;;;;;5034817;28;20034;-67
2022/06/27 12:59:41;;;;;;;3.50;2.10;;;33.60;34.20;;;;;;5045147;28;20066;-69
2022/06/27 13:02:07;;;;;;;5.10;2.00;;;33.60;34.50;;;;;;5015976;28;20017;-68
2022/06/27 13:04:34;;;;;;;2.17;1.70;;;33.80;34.70;;;;;;5039768;28;20440;-67
2022/06/27 13:06:59;;;;;;;2.35;1.63;;;33.90;34.30;;;;;;5040595;28;20543;-68
2022/06/27 13:09:25;;;;;;;5.10;1.92;;;34.00;34.00;;;;;;5032383;28;20029;-68
2022/06/27 13:11:51;;;;;;;4.30;1.95;;;34.20;33.90;;;;;;5045028;28;20109;-68
2022/06/27 13:14:17;;;;;;;5.55;1.75;;;34.20;33.20;;;;;;5035238;28;20413;-68
2022/06/27 13:16:43;;;;;;;4.45;1.70;;;34.10;33.30;;;;;;5020427;28;20018;-68
2022/06/27 13:19:10;;;;;;;3.60;1.67;;;34.00;33.70;;;;;;5041859;28;20042;-69